sensor_id;sensor_type;location;lat;lon;timestamp;pressure;altitude;pressure_sealevel;temperature;humidity
49342;BME280;35210;41.606;-87.602;2022-09-09T00:01:37;99110.63;;;28.99;47.01
49342;BME280;35210;41.606;-87.602;2022-09-09T00:04:15;99115.53;;;28.97;47.42
49342;BME280;35210;41.606;-87.602;2022-09-09T00:06:53;99112.81;;;28.97;47.67
49342;BME280;35210;41.606;-87.602;2022-09-09T00:09:26;99110.56;;;28.94;48.38
49342;BME280;35210;41.606;-87.602;2022-09-09T00:12:01;99101.25;;;28.90;48.57
49342;BME280;35210;41.606;-87.602;2022-09-09T00:14:38;99097.97;;;28.88;48.42
49342;BME280;35210;41.606;-87.602;2022-09-09T00:17:14;99100.59;;;28.83;48.70
49342;BME280;35210;41.606;-87.602;2022-09-09T00:19:49;99110.25;;;28.78;48.73
49342;BME280;35210;41.606;-87.602;2022-09-09T00:22:22;99122.09;;;28.72;49.03
49342;BME280;35210;41.606;-87.602;2022-09-09T00:24:53;99115.75;;;28.67;49.03
49342;BME280;35210;41.606;-87.602;2022-09-09T00:27:26;99105.28;;;28.59;48.75
49342;BME280;35210;41.606;-87.602;2022-09-09T00:30:01;99110.03;;;28.52;49.33
49342;BME280;35210;41.606;-87.602;2022-09-09T00:32:33;99110.75;;;28.47;49.38
49342;BME280;35210;41.606;-87.602;2022-09-09T00:35:16;99119.38;;;28.44;49.31
49342;BME280;35210;41.606;-87.602;2022-09-09T00:37:47;99112.19;;;28.38;49.47
49342;BME280;35210;41.606;-87.602;2022-09-09T00:40:24;99112.91;;;28.33;49.83
49342;BME280;35210;41.606;-87.602;2022-09-09T00:43:08;99111.97;;;28.28;49.82
49342;BME280;35210;41.606;-87.602;2022-09-09T00:46:26;99116.25;;;28.24;49.91
49342;BME280;35210;41.606;-87.602;2022-09-09T00:49:13;99116.38;;;28.17;50.06
49342;BME280;35210;41.606;-87.602;2022-09-09T00:51:50;99110.00;;;28.11;50.12
49342;BME280;35210;41.606;-87.602;2022-09-09T00:54:33;99121.81;;;28.05;50.37
49342;BME280;35210;41.606;-87.602;2022-09-09T00:57:14;99115.69;;;27.98;50.71
49342;BME280;35210;41.606;-87.602;2022-09-09T00:59:51;99111.81;;;27.94;50.84
49342;BME280;35210;41.606;-87.602;2022-09-09T01:02:27;99116.31;;;27.89;50.97
49342;BME280;35210;41.606;-87.602;2022-09-09T01:05:10;99130.59;;;27.84;51.12
49342;BME280;35210;41.606;-87.602;2022-09-09T01:07:43;99128.59;;;27.79;50.83
49342;BME280;35210;41.606;-87.602;2022-09-09T01:10:33;99130.13;;;27.75;51.54
49342;BME280;35210;41.606;-87.602;2022-09-09T01:13:11;99129.16;;;27.70;51.46
49342;BME280;35210;41.606;-87.602;2022-09-09T01:15:44;99138.25;;;27.64;51.91
49342;BME280;35210;41.606;-87.602;2022-09-09T01:18:16;99142.09;;;27.56;52.44
49342;BME280;35210;41.606;-87.602;2022-09-09T01:20:55;99146.25;;;27.47;52.88
49342;BME280;35210;41.606;-87.602;2022-09-09T01:23:40;99146.97;;;27.42;51.60
49342;BME280;35210;41.606;-87.602;2022-09-09T01:26:27;99145.84;;;27.20;52.11
49342;BME280;35210;41.606;-87.602;2022-09-09T01:28:58;99150.44;;;27.20;52.47
49342;BME280;35210;41.606;-87.602;2022-09-09T01:31:29;99150.78;;;27.11;52.36
49342;BME280;35210;41.606;-87.602;2022-09-09T01:33:59;99146.53;;;26.85;52.72
49342;BME280;35210;41.606;-87.602;2022-09-09T01:36:31;99158.28;;;26.79;53.04
49342;BME280;35210;41.606;-87.602;2022-09-09T01:39:01;99153.22;;;26.71;52.79
49342;BME280;35210;41.606;-87.602;2022-09-09T01:41:31;99159.41;;;26.60;52.96
49342;BME280;35210;41.606;-87.602;2022-09-09T01:43:59;99153.41;;;26.58;53.55
49342;BME280;35210;41.606;-87.602;2022-09-09T01:46:28;99150.69;;;26.58;53.23
49342;BME280;35210;41.606;-87.602;2022-09-09T01:48:57;99158.91;;;26.51;52.83
49342;BME280;35210;41.606;-87.602;2022-09-09T01:51:27;99155.22;;;26.46;52.49
49342;BME280;35210;41.606;-87.602;2022-09-09T01:53:55;99151.00;;;26.50;52.69
49342;BME280;35210;41.606;-87.602;2022-09-09T01:56:35;99153.94;;;26.48;52.67
49342;BME280;35210;41.606;-87.602;2022-09-09T01:59:17;99151.31;;;26.42;52.44
49342;BME280;35210;41.606;-87.602;2022-09-09T02:02:02;99158.63;;;26.41;53.03
49342;BME280;35210;41.606;-87.602;2022-09-09T02:04:38;99157.19;;;26.39;53.18
49342;BME280;35210;41.606;-87.602;2022-09-09T02:07:21;99163.66;;;26.38;53.26
49342;BME280;35210;41.606;-87.602;2022-09-09T02:10:00;99160.72;;;26.39;53.31
49342;BME280;35210;41.606;-87.602;2022-09-09T02:12:31;99167.41;;;26.37;53.43
49342;BME280;35210;41.606;-87.602;2022-09-09T02:15:04;99173.66;;;26.37;53.21
49342;BME280;35210;41.606;-87.602;2022-09-09T02:17:36;99177.03;;;26.33;53.76
49342;BME280;35210;41.606;-87.602;2022-09-09T02:20:09;99173.91;;;26.29;54.00
49342;BME280;35210;41.606;-87.602;2022-09-09T02:22:42;99164.00;;;26.23;54.03
49342;BME280;35210;41.606;-87.602;2022-09-09T02:25:15;99162.13;;;26.24;54.50
49342;BME280;35210;41.606;-87.602;2022-09-09T02:27:49;99161.06;;;26.25;54.27
49342;BME280;35210;41.606;-87.602;2022-09-09T02:30:18;99167.53;;;26.24;54.36
49342;BME280;35210;41.606;-87.602;2022-09-09T02:32:50;99161.06;;;26.25;54.41
49342;BME280;35210;41.606;-87.602;2022-09-09T02:35:24;99167.53;;;26.24;54.21
49342;BME280;35210;41.606;-87.602;2022-09-09T02:37:54;99170.91;;;26.19;54.00
49342;BME280;35210;41.606;-87.602;2022-09-09T02:40:25;99170.75;;;26.14;54.40
49342;BME280;35210;41.606;-87.602;2022-09-09T02:42:55;99169.09;;;26.13;54.61
49342;BME280;35210;41.606;-87.602;2022-09-09T02:45:25;99175.56;;;26.12;54.78
49342;BME280;35210;41.606;-87.602;2022-09-09T02:48:03;99169.34;;;26.11;55.41
49342;BME280;35210;41.606;-87.602;2022-09-09T02:50:41;99168.13;;;26.07;56.38
49342;BME280;35210;41.606;-87.602;2022-09-09T02:53:17;99166.91;;;26.03;56.71
49342;BME280;35210;41.606;-87.602;2022-09-09T02:55:48;99158.19;;;26.01;56.63
49342;BME280;35210;41.606;-87.602;2022-09-09T02:58:19;99174.53;;;25.95;56.84
49342;BME280;35210;41.606;-87.602;2022-09-09T03:00:50;99170.63;;;25.91;57.11
49342;BME280;35210;41.606;-87.602;2022-09-09T03:03:19;99180.00;;;25.88;57.26
49342;BME280;35210;41.606;-87.602;2022-09-09T03:05:48;99169.03;;;25.83;57.59
49342;BME280;35210;41.606;-87.602;2022-09-09T03:08:17;99177.19;;;25.76;57.75
49342;BME280;35210;41.606;-87.602;2022-09-09T03:10:45;99179.97;;;25.70;57.88
49342;BME280;35210;41.606;-87.602;2022-09-09T03:13:13;99175.22;;;25.65;57.76
49342;BME280;35210;41.606;-87.602;2022-09-09T03:15:43;99180.66;;;25.59;57.78
49342;BME280;35210;41.606;-87.602;2022-09-09T03:18:11;99178.63;;;25.54;58.07
49342;BME280;35210;41.606;-87.602;2022-09-09T03:20:39;99175.75;;;25.49;58.63
49342;BME280;35210;41.606;-87.602;2022-09-09T03:23:08;99189.53;;;25.41;59.62
49342;BME280;35210;41.606;-87.602;2022-09-09T03:25:36;99187.91;;;25.33;60.02
49342;BME280;35210;41.606;-87.602;2022-09-09T03:28:05;99186.69;;;25.29;59.94
49342;BME280;35210;41.606;-87.602;2022-09-09T03:30:33;99184.69;;;25.25;60.01
49342;BME280;35210;41.606;-87.602;2022-09-09T03:33:03;99194.88;;;25.23;60.22
49342;BME280;35210;41.606;-87.602;2022-09-09T03:35:31;99192.00;;;25.17;60.46
49342;BME280;35210;41.606;-87.602;2022-09-09T03:38:05;99197.84;;;25.14;60.36
49342;BME280;35210;41.606;-87.602;2022-09-09T03:40:33;99196.00;;;25.08;60.32
49342;BME280;35210;41.606;-87.602;2022-09-09T03:43:02;99197.66;;;25.09;60.02
49342;BME280;35210;41.606;-87.602;2022-09-09T03:45:30;99197.28;;;25.06;60.27
49342;BME280;35210;41.606;-87.602;2022-09-09T03:47:59;99203.13;;;25.03;60.05
49342;BME280;35210;41.606;-87.602;2022-09-09T03:50:29;99201.88;;;24.99;60.29
49342;BME280;35210;41.606;-87.602;2022-09-09T03:52:58;99200.63;;;24.95;60.51
49342;BME280;35210;41.606;-87.602;2022-09-09T03:55:26;99204.81;;;24.90;60.77
49342;BME280;35210;41.606;-87.602;2022-09-09T03:57:54;99207.13;;;24.87;60.99
49342;BME280;35210;41.606;-87.602;2022-09-09T04:00:23;99209.19;;;24.85;61.34
49342;BME280;35210;41.606;-87.602;2022-09-09T04:02:52;99207.16;;;24.80;61.57
49342;BME280;35210;41.606;-87.602;2022-09-09T04:05:23;99208.81;;;24.75;62.54
49342;BME280;35210;41.606;-87.602;2022-09-09T04:07:53;99209.91;;;24.67;62.94
49342;BME280;35210;41.606;-87.602;2022-09-09T04:10:22;99209.72;;;24.62;63.32
49342;BME280;35210;41.606;-87.602;2022-09-09T04:12:51;99213.88;;;24.58;63.71
49342;BME280;35210;41.606;-87.602;2022-09-09T04:15:20;99213.28;;;24.56;63.97
49342;BME280;35210;41.606;-87.602;2022-09-09T04:17:48;99205.81;;;24.51;64.14
49342;BME280;35210;41.606;-87.602;2022-09-09T04:20:17;99209.19;;;24.47;64.42
49342;BME280;35210;41.606;-87.602;2022-09-09T04:22:45;99217.09;;;24.42;64.44
49342;BME280;35210;41.606;-87.602;2022-09-09T04:25:15;99217.50;;;24.39;64.55
49342;BME280;35210;41.606;-87.602;2022-09-09T04:27:44;99214.63;;;24.34;64.71
49342;BME280;35210;41.606;-87.602;2022-09-09T04:30:13;99214.41;;;24.29;65.05
49342;BME280;35210;41.606;-87.602;2022-09-09T04:32:42;99216.50;;;24.27;65.25
49342;BME280;35210;41.606;-87.602;2022-09-09T04:35:10;99208.38;;;24.20;65.89
49342;BME280;35210;41.606;-87.602;2022-09-09T04:37:38;99211.72;;;24.09;66.69
49342;BME280;35210;41.606;-87.602;2022-09-09T04:40:08;99216.94;;;24.04;66.51
49342;BME280;35210;41.606;-87.602;2022-09-09T04:42:38;99219.63;;;23.97;66.80
49342;BME280;35210;41.606;-87.602;2022-09-09T04:45:10;99220.03;;;23.94;67.20
49342;BME280;35210;41.606;-87.602;2022-09-09T04:47:39;99229.19;;;23.93;67.31
49342;BME280;35210;41.606;-87.602;2022-09-09T04:50:09;99228.16;;;23.87;67.80
49342;BME280;35210;41.606;-87.602;2022-09-09T04:52:39;99222.97;;;23.86;67.67
49342;BME280;35210;41.606;-87.602;2022-09-09T04:55:08;99222.53;;;23.82;67.82
49342;BME280;35210;41.606;-87.602;2022-09-09T04:57:38;99211.38;;;23.72;68.07
49342;BME280;35210;41.606;-87.602;2022-09-09T05:00:08;99220.09;;;23.68;67.14
49342;BME280;35210;41.606;-87.602;2022-09-09T05:02:38;99216.34;;;23.62;66.90
49342;BME280;35210;41.606;-87.602;2022-09-09T05:05:06;99210.97;;;23.62;66.56
49342;BME280;35210;41.606;-87.602;2022-09-09T05:07:37;99225.06;;;23.57;66.53
49342;BME280;35210;41.606;-87.602;2022-09-09T05:10:05;99221.50;;;23.50;66.76
49342;BME280;35210;41.606;-87.602;2022-09-09T05:12:34;99230.22;;;23.52;66.95
49342;BME280;35210;41.606;-87.602;2022-09-09T05:15:06;99240.38;;;23.50;67.93
49342;BME280;35210;41.606;-87.602;2022-09-09T05:17:36;99242.84;;;23.45;69.56
49342;BME280;35210;41.606;-87.602;2022-09-09T05:20:05;99227.72;;;23.44;69.56
49342;BME280;35210;41.606;-87.602;2022-09-09T05:22:33;99233.94;;;23.38;69.38
49342;BME280;35210;41.606;-87.602;2022-09-09T05:25:02;99233.31;;;23.36;69.19
49342;BME280;35210;41.606;-87.602;2022-09-09T05:27:30;99227.91;;;23.36;68.99
49342;BME280;35210;41.606;-87.602;2022-09-09T05:29:58;99224.59;;;23.34;69.00
49342;BME280;35210;41.606;-87.602;2022-09-09T05:32:29;99235.78;;;23.31;69.66
49342;BME280;35210;41.606;-87.602;2022-09-09T05:35:00;99241.34;;;23.23;71.73
49342;BME280;35210;41.606;-87.602;2022-09-09T05:37:29;99243.59;;;23.06;72.14
49342;BME280;35210;41.606;-87.602;2022-09-09T05:39:58;99242.34;;;22.96;72.55
49342;BME280;35210;41.606;-87.602;2022-09-09T05:42:41;99244.81;;;22.90;72.38
49342;BME280;35210;41.606;-87.602;2022-09-09T05:45:09;99246.47;;;22.91;71.96
49342;BME280;35210;41.606;-87.602;2022-09-09T05:47:40;99244.81;;;22.90;72.05
49342;BME280;35210;41.606;-87.602;2022-09-09T05:50:09;99249.56;;;22.88;71.99
49342;BME280;35210;41.606;-87.602;2022-09-09T05:52:37;99251.22;;;22.89;71.63
49342;BME280;35210;41.606;-87.602;2022-09-09T05:55:06;99255.59;;;22.90;71.63
49342;BME280;35210;41.606;-87.602;2022-09-09T05:57:34;99255.34;;;22.85;72.21
49342;BME280;35210;41.606;-87.602;2022-09-09T06:00:03;99256.38;;;22.84;72.00
49342;BME280;35210;41.606;-87.602;2022-09-09T06:02:31;99252.81;;;22.77;72.50
49342;BME280;35210;41.606;-87.602;2022-09-09T06:05:02;99252.38;;;22.74;72.67
49342;BME280;35210;41.606;-87.602;2022-09-09T06:07:30;99257.97;;;22.72;72.74
49342;BME280;35210;41.606;-87.602;2022-09-09T06:09:59;99253.38;;;22.66;73.03
49342;BME280;35210;41.606;-87.602;2022-09-09T06:12:27;99254.81;;;22.62;73.45
49342;BME280;35210;41.606;-87.602;2022-09-09T06:14:56;99255.84;;;22.61;73.33
49342;BME280;35210;41.606;-87.602;2022-09-09T06:17:24;99260.59;;;22.59;73.27
49342;BME280;35210;41.606;-87.602;2022-09-09T06:19:52;99250.84;;;22.58;72.90
49342;BME280;35210;41.606;-87.602;2022-09-09T06:22:24;99247.53;;;22.56;72.71
49342;BME280;35210;41.606;-87.602;2022-09-09T06:24:52;99247.53;;;22.56;72.71
49342;BME280;35210;41.606;-87.602;2022-09-09T06:27:20;99250.41;;;22.54;72.59
49342;BME280;35210;41.606;-87.602;2022-09-09T06:29:49;99242.53;;;22.53;72.55
49342;BME280;35210;41.606;-87.602;2022-09-09T06:32:18;99242.94;;;22.50;72.83
49342;BME280;35210;41.606;-87.602;2022-09-09T06:34:47;99237.97;;;22.47;73.07
49342;BME280;35210;41.606;-87.602;2022-09-09T06:37:16;99238.34;;;22.44;73.70
49342;BME280;35210;41.606;-87.602;2022-09-09T06:39:47;99237.09;;;22.40;73.69
49342;BME280;35210;41.606;-87.602;2022-09-09T06:42:15;99243.91;;;22.36;73.75
49342;BME280;35210;41.606;-87.602;2022-09-09T06:44:44;99232.50;;;22.34;73.99
49342;BME280;35210;41.606;-87.602;2022-09-09T06:47:12;99237.88;;;22.27;74.55
49342;BME280;35210;41.606;-87.602;2022-09-09T06:49:40;99230.84;;;22.26;74.11
49342;BME280;35210;41.606;-87.602;2022-09-09T06:52:09;99233.47;;;22.19;73.97
49342;BME280;35210;41.606;-87.602;2022-09-09T06:54:38;99237.78;;;22.14;74.69
49342;BME280;35210;41.606;-87.602;2022-09-09T06:57:07;99240.88;;;22.11;74.74
49342;BME280;35210;41.606;-87.602;2022-09-09T06:59:36;99247.22;;;22.03;75.00
49342;BME280;35210;41.606;-87.602;2022-09-09T07:02:05;99243.63;;;21.96;76.05
49342;BME280;35210;41.606;-87.602;2022-09-09T07:04:33;99233.91;;;21.95;76.11
49342;BME280;35210;41.606;-87.602;2022-09-09T07:07:03;99244.22;;;21.91;76.56
49342;BME280;35210;41.606;-87.602;2022-09-09T07:09:31;99242.75;;;21.89;76.48
49342;BME280;35210;41.606;-87.602;2022-09-09T07:12:00;99244.16;;;21.85;76.63
49342;BME280;35210;41.606;-87.602;2022-09-09T07:14:29;99237.31;;;21.82;76.61
49342;BME280;35210;41.606;-87.602;2022-09-09T07:16:58;99234.19;;;21.79;76.56
49342;BME280;35210;41.606;-87.602;2022-09-09T07:19:27;99237.66;;;21.73;76.68
49342;BME280;35210;41.606;-87.602;2022-09-09T07:21:55;99233.69;;;21.69;76.72
49342;BME280;35210;41.606;-87.602;2022-09-09T07:24:24;99229.53;;;21.66;76.86
49342;BME280;35210;41.606;-87.602;2022-09-09T07:26:56;99231.59;;;21.64;77.03
49342;BME280;35210;41.606;-87.602;2022-09-09T07:29:24;99228.66;;;21.59;77.12
49342;BME280;35210;41.606;-87.602;2022-09-09T07:31:54;99224.50;;;21.56;76.87
49342;BME280;35210;41.606;-87.602;2022-09-09T07:34:22;99227.19;;;21.56;76.77
49342;BME280;35210;41.606;-87.602;2022-09-09T07:36:51;99231.91;;;21.54;76.71
49342;BME280;35210;41.606;-87.602;2022-09-09T07:39:19;99232.72;;;21.48;77.04
49342;BME280;35210;41.606;-87.602;2022-09-09T07:41:48;99227.34;;;21.48;76.65
49342;BME280;35210;41.606;-87.602;2022-09-09T07:44:18;99235.59;;;21.47;76.79
49342;BME280;35210;41.606;-87.602;2022-09-09T07:46:47;99234.31;;;21.43;76.76
49342;BME280;35210;41.606;-87.602;2022-09-09T07:49:17;99236.19;;;21.42;76.92
49342;BME280;35210;41.606;-87.602;2022-09-09T07:51:46;99236.19;;;21.42;76.90
49342;BME280;35210;41.606;-87.602;2022-09-09T07:54:16;99242.38;;;21.43;76.88
49342;BME280;35210;41.606;-87.602;2022-09-09T07:56:46;99244.22;;;21.42;76.88
49342;BME280;35210;41.606;-87.602;2022-09-09T07:59:15;99240.72;;;21.42;76.79
49342;BME280;35210;41.606;-87.602;2022-09-09T08:01:46;99239.25;;;21.39;76.93
49342;BME280;35210;41.606;-87.602;2022-09-09T08:04:18;99240.47;;;21.37;77.15
49342;BME280;35210;41.606;-87.602;2022-09-09T08:06:48;99237.97;;;21.35;77.18
49342;BME280;35210;41.606;-87.602;2022-09-09T08:09:17;99246.22;;;21.34;77.20
49342;BME280;35210;41.606;-87.602;2022-09-09T08:11:45;99244.09;;;21.29;77.18
49342;BME280;35210;41.606;-87.602;2022-09-09T08:14:13;99247.16;;;21.26;77.32
49342;BME280;35210;41.606;-87.602;2022-09-09T08:16:44;99255.59;;;21.23;77.44
49342;BME280;35210;41.606;-87.602;2022-09-09T08:19:12;99251.25;;;21.22;77.44
49342;BME280;35210;41.606;-87.602;2022-09-09T08:21:44;99257.81;;;21.19;77.58
49342;BME280;35210;41.606;-87.602;2022-09-09T08:24:13;99248.91;;;21.19;77.63
49342;BME280;35210;41.606;-87.602;2022-09-09T08:26:42;99274.09;;;21.18;77.51
49342;BME280;35210;41.606;-87.602;2022-09-09T08:29:11;99263.75;;;21.15;77.86
49342;BME280;35210;41.606;-87.602;2022-09-09T08:31:41;99274.47;;;21.15;77.58
49342;BME280;35210;41.606;-87.602;2022-09-09T08:34:10;99269.69;;;21.10;77.45
49342;BME280;35210;41.606;-87.602;2022-09-09T08:36:40;99268.41;;;21.06;77.74
49342;BME280;35210;41.606;-87.602;2022-09-09T08:39:11;99271.00;;;20.99;77.90
49342;BME280;35210;41.606;-87.602;2022-09-09T08:47:47;99281.28;;;20.96;77.55
49342;BME280;35210;41.606;-87.602;2022-09-09T08:50:23;99277.59;;;20.97;77.75
49342;BME280;35210;41.606;-87.602;2022-09-09T08:52:59;99278.22;;;20.99;77.77
49342;BME280;35210;41.606;-87.602;2022-09-09T08:55:37;99277.19;;;21.00;77.69
49342;BME280;35210;41.606;-87.602;2022-09-09T08:58:13;99275.72;;;20.97;78.13
49342;BME280;35210;41.606;-87.602;2022-09-09T09:01:02;99278.78;;;20.94;78.34
49342;BME280;35210;41.606;-87.602;2022-09-09T09:03:46;99266.56;;;20.92;78.20
49342;BME280;35210;41.606;-87.602;2022-09-09T09:06:27;99268.63;;;20.90;78.15
49342;BME280;35210;41.606;-87.602;2022-09-09T09:09:02;99266.50;;;20.85;78.24
49342;BME280;35210;41.606;-87.602;2022-09-09T09:11:38;99273.53;;;20.86;78.30
49342;BME280;35210;41.606;-87.602;2022-09-09T09:14:11;99273.16;;;20.89;78.35
49342;BME280;35210;41.606;-87.602;2022-09-09T09:16:51;99272.50;;;20.87;78.05
49342;BME280;35210;41.606;-87.602;2022-09-09T09:19:21;99271.59;;;20.80;77.58
49342;BME280;35210;41.606;-87.602;2022-09-09T09:21:56;99268.28;;;20.78;77.50
49342;BME280;35210;41.606;-87.602;2022-09-09T09:24:34;99276.34;;;20.78;78.27
49342;BME280;35210;41.606;-87.602;2022-09-09T09:27:13;99273.38;;;20.73;78.52
49342;BME280;35210;41.606;-87.602;2022-09-09T09:29:45;99276.25;;;20.72;78.24
49342;BME280;35210;41.606;-87.602;2022-09-09T09:32:18;99274.41;;;20.72;78.09
49342;BME280;35210;41.606;-87.602;2022-09-09T09:34:49;99269.88;;;20.73;77.96
49342;BME280;35210;41.606;-87.602;2022-09-09T09:37:26;99274.41;;;20.72;78.25
49342;BME280;35210;41.606;-87.602;2022-09-09T09:39:55;99277.66;;;20.67;78.64
49342;BME280;35210;41.606;-87.602;2022-09-09T09:42:25;99283.75;;;20.61;78.85
49342;BME280;35210;41.606;-87.602;2022-09-09T09:44:55;99282.28;;;20.59;79.31
49342;BME280;35210;41.606;-87.602;2022-09-09T09:47:28;99284.03;;;20.52;79.81
49342;BME280;35210;41.606;-87.602;2022-09-09T09:49:57;99281.09;;;20.47;80.00
49342;BME280;35210;41.606;-87.602;2022-09-09T09:52:28;99286.81;;;20.44;80.20
49342;BME280;35210;41.606;-87.602;2022-09-09T09:54:58;99282.84;;;20.40;80.16
49342;BME280;35210;41.606;-87.602;2022-09-09T09:57:30;99281.50;;;20.35;80.17
49342;BME280;35210;41.606;-87.602;2022-09-09T10:00:04;99279.09;;;20.26;80.45
49342;BME280;35210;41.606;-87.602;2022-09-09T10:02:38;99283.81;;;20.24;80.56
49342;BME280;35210;41.606;-87.602;2022-09-09T10:05:14;99288.53;;;20.22;80.17
49342;BME280;35210;41.606;-87.602;2022-09-09T10:07:45;99292.41;;;20.19;80.43
49342;BME280;35210;41.606;-87.602;2022-09-09T10:10:19;99295.63;;;20.15;80.51
49342;BME280;35210;41.606;-87.602;2022-09-09T10:12:59;99293.69;;;20.09;80.73
49342;BME280;35210;41.606;-87.602;2022-09-09T10:15:39;99302.47;;;20.02;80.34
49342;BME280;35210;41.606;-87.602;2022-09-09T10:18:27;99296.00;;;19.97;80.77
49342;BME280;35210;41.606;-87.602;2022-09-09T10:21:06;99297.66;;;19.98;80.67
49342;BME280;35210;41.606;-87.602;2022-09-09T10:23:57;99305.88;;;19.96;80.65
49342;BME280;35210;41.606;-87.602;2022-09-09T10:26:40;99296.34;;;19.94;80.89
49342;BME280;35210;41.606;-87.602;2022-09-09T10:29:37;99309.41;;;19.97;80.54
49342;BME280;35210;41.606;-87.602;2022-09-09T10:32:27;99300.69;;;19.95;79.99
49342;BME280;35210;41.606;-87.602;2022-09-09T10:35:00;99303.75;;;19.92;80.01
49342;BME280;35210;41.606;-87.602;2022-09-09T10:37:41;99306.41;;;19.92;79.87
49342;BME280;35210;41.606;-87.602;2022-09-09T10:40:24;99303.75;;;19.92;79.68
49342;BME280;35210;41.606;-87.602;2022-09-09T10:43:12;99299.75;;;19.88;79.68
49342;BME280;35210;41.606;-87.602;2022-09-09T10:45:51;99304.47;;;19.86;79.89
49342;BME280;35210;41.606;-87.602;2022-09-09T10:48:31;99311.84;;;19.84;79.53
49342;BME280;35210;41.606;-87.602;2022-09-09T10:51:19;99314.53;;;19.84;79.56
49342;BME280;35210;41.606;-87.602;2022-09-09T10:56:52;99309.63;;;19.87;79.75
49342;BME280;35210;41.606;-87.602;2022-09-09T10:59:26;99309.28;;;19.90;79.78
49342;BME280;35210;41.606;-87.602;2022-09-09T11:02:02;99322.69;;;19.90;79.72
49342;BME280;35210;41.606;-87.602;2022-09-09T11:04:38;99312.78;;;19.91;79.75
49342;BME280;35210;41.606;-87.602;2022-09-09T11:07:12;99320.19;;;19.89;80.12
49342;BME280;35210;41.606;-87.602;2022-09-09T11:09:49;99318.41;;;19.81;80.28
49342;BME280;35210;41.606;-87.602;2022-09-09T11:12:23;99311.19;;;19.82;80.01
49342;BME280;35210;41.606;-87.602;2022-09-09T11:14:59;99326.25;;;19.83;80.04
49342;BME280;35210;41.606;-87.602;2022-09-09T11:20:28;99329.94;;;19.82;80.34
49342;BME280;35210;41.606;-87.602;2022-09-09T11:23:02;99339.84;;;19.81;80.41
49342;BME280;35210;41.606;-87.602;2022-09-09T11:25:38;99348.06;;;19.80;80.83
49342;BME280;35210;41.606;-87.602;2022-09-09T11:28:23;99359.78;;;19.79;80.53
49342;BME280;35210;41.606;-87.602;2022-09-09T11:31:05;99357.28;;;19.77;80.65
49342;BME280;35210;41.606;-87.602;2022-09-09T11:33:58;99371.88;;;19.75;80.71
49342;BME280;35210;41.606;-87.602;2022-09-09T11:40:09;99364.84;;;19.74;80.86
49342;BME280;35210;41.606;-87.602;2022-09-09T11:42:43;99374.84;;;19.80;80.33
49342;BME280;35210;41.606;-87.602;2022-09-09T11:45:20;99378.31;;;19.88;79.99
49342;BME280;35210;41.606;-87.602;2022-09-09T11:47:54;99390.81;;;19.96;79.58
49342;BME280;35210;41.606;-87.602;2022-09-09T11:50:37;99383.25;;;19.99;79.16
49342;BME280;35210;41.606;-87.602;2022-09-09T11:53:18;99397.47;;;20.00;79.73
49342;BME280;35210;41.606;-87.602;2022-09-09T11:56:26;99395.44;;;20.02;79.75
49342;BME280;35210;41.606;-87.602;2022-09-09T11:58:58;99399.16;;;20.01;79.86
49342;BME280;35210;41.606;-87.602;2022-09-09T12:01:37;99396.66;;;19.99;79.63
49342;BME280;35210;41.606;-87.602;2022-09-09T12:04:49;99408.03;;;20.01;79.88
49342;BME280;35210;41.606;-87.602;2022-09-09T12:07:31;99408.78;;;19.87;80.11
49342;BME280;35210;41.606;-87.602;2022-09-09T12:10:04;99403.78;;;19.84;80.43
49342;BME280;35210;41.606;-87.602;2022-09-09T12:12:35;99406.22;;;19.71;81.36
49342;BME280;35210;41.606;-87.602;2022-09-09T12:15:20;99410.66;;;19.48;82.38
49342;BME280;35210;41.606;-87.602;2022-09-09T12:17:50;99414.19;;;19.48;82.39
49342;BME280;35210;41.606;-87.602;2022-09-09T12:20:21;99411.84;;;19.53;82.33
49342;BME280;35210;41.606;-87.602;2022-09-09T12:23:05;99418.59;;;19.33;83.73
49342;BME280;35210;41.606;-87.602;2022-09-09T12:26:01;99422.94;;;19.34;83.70
49342;BME280;35210;41.606;-87.602;2022-09-09T12:28:47;99418.56;;;19.41;83.38
49342;BME280;35210;41.606;-87.602;2022-09-09T12:31:24;99417.56;;;19.42;84.26
49342;BME280;35210;41.606;-87.602;2022-09-09T12:33:52;99429.69;;;19.30;84.59
49342;BME280;35210;41.606;-87.602;2022-09-09T12:36:23;99422.66;;;19.29;84.52
49342;BME280;35210;41.606;-87.602;2022-09-09T12:38:57;99421.66;;;19.30;84.34
49342;BME280;35210;41.606;-87.602;2022-09-09T12:41:28;99419.16;;;19.28;84.22
49342;BME280;35210;41.606;-87.602;2022-09-09T12:44:04;99418.69;;;19.17;84.91
49342;BME280;35210;41.606;-87.602;2022-09-09T12:46:38;99417.88;;;19.16;85.45
49342;BME280;35210;41.606;-87.602;2022-09-09T12:49:26;99426.72;;;19.17;85.68
49342;BME280;35210;41.606;-87.602;2022-09-09T12:51:57;99425.88;;;19.24;86.21
49342;BME280;35210;41.606;-87.602;2022-09-09T12:54:28;99428.63;;;19.39;85.30
49342;BME280;35210;41.606;-87.602;2022-09-09T12:56:57;99427.44;;;19.42;85.05
49342;BME280;35210;41.606;-87.602;2022-09-09T12:59:34;99426.28;;;19.36;85.29
49342;BME280;35210;41.606;-87.602;2022-09-09T13:02:18;99424.53;;;19.59;85.34
49342;BME280;35210;41.606;-87.602;2022-09-09T13:04:47;99420.28;;;19.34;85.23
49342;BME280;35210;41.606;-87.602;2022-09-09T13:07:17;99425.19;;;19.22;85.85
49342;BME280;35210;41.606;-87.602;2022-09-09T13:09:47;99430.97;;;19.34;85.57
49342;BME280;35210;41.606;-87.602;2022-09-09T13:12:19;99437.97;;;19.43;86.02
49342;BME280;35210;41.606;-87.602;2022-09-09T13:14:50;99432.66;;;19.35;86.35
49342;BME280;35210;41.606;-87.602;2022-09-09T13:17:21;99430.25;;;19.56;86.59
49342;BME280;35210;41.606;-87.602;2022-09-09T13:19:51;99433.94;;;19.47;86.72
49342;BME280;35210;41.606;-87.602;2022-09-09T13:22:26;99437.63;;;19.54;86.46
49342;BME280;35210;41.606;-87.602;2022-09-09T13:25:05;99433.72;;;19.65;86.75
49342;BME280;35210;41.606;-87.602;2022-09-09T13:27:38;99435.06;;;19.61;86.40